sensor_id;sensor_type;location;lat;lon;timestamp;temperature;humidity
10030;DHT22;5055;52.054;8.524;2024-03-07T00:01:51;3.70;97.00
10030;DHT22;5055;52.054;8.524;2024-03-07T00:04:19;3.70;97.00
10030;DHT22;5055;52.054;8.524;2024-03-07T00:06:47;3.70;97.00
10030;DHT22;5055;52.054;8.524;2024-03-07T00:09:16;3.70;97.00
10030;DHT22;5055;52.054;8.524;2024-03-07T00:11:45;3.70;97.00
10030;DHT22;5055;52.054;8.524;2024-03-07T00:14:14;3.80;97.00
10030;DHT22;5055;52.054;8.524;2024-03-07T00:16:43;3.80;97.00
10030;DHT22;5055;52.054;8.524;2024-03-07T00:19:10;3.80;97.00
10030;DHT22;5055;52.054;8.524;2024-03-07T00:21:41;3.80;97.00
10030;DHT22;5055;52.054;8.524;2024-03-07T00:24:09;3.80;97.00
10030;DHT22;5055;52.054;8.524;2024-03-07T00:26:37;3.70;97.00
10030;DHT22;5055;52.054;8.524;2024-03-07T00:29:07;3.70;97.00
10030;DHT22;5055;52.054;8.524;2024-03-07T00:31:36;3.60;97.00
10030;DHT22;5055;52.054;8.524;2024-03-07T00:34:04;3.50;97.00
10030;DHT22;5055;52.054;8.524;2024-03-07T00:36:42;3.50;97.00
10030;DHT22;5055;52.054;8.524;2024-03-07T00:39:10;3.40;97.00
10030;DHT22;5055;52.054;8.524;2024-03-07T00:41:39;3.30;97.00
10030;DHT22;5055;52.054;8.524;2024-03-07T00:44:08;3.20;97.00
10030;DHT22;5055;52.054;8.524;2024-03-07T00:46:38;3.20;97.00
10030;DHT22;5055;52.054;8.524;2024-03-07T00:49:06;3.10;97.00
10030;DHT22;5055;52.054;8.524;2024-03-07T00:51:34;3.00;97.00
10030;DHT22;5055;52.054;8.524;2024-03-07T00:54:05;3.00;97.00
10030;DHT22;5055;52.054;8.524;2024-03-07T00:56:33;2.90;97.00
10030;DHT22;5055;52.054;8.524;2024-03-07T00:59:03;2.90;97.00
10030;DHT22;5055;52.054;8.524;2024-03-07T01:01:32;2.80;97.00
10030;DHT22;5055;52.054;8.524;2024-03-07T01:04:05;2.80;97.00
10030;DHT22;5055;52.054;8.524;2024-03-07T01:06:34;2.70;97.00
10030;DHT22;5055;52.054;8.524;2024-03-07T01:09:03;2.70;97.00
10030;DHT22;5055;52.054;8.524;2024-03-07T01:11:31;2.60;97.00
10030;DHT22;5055;52.054;8.524;2024-03-07T01:13:59;2.60;97.00
10030;DHT22;5055;52.054;8.524;2024-03-07T01:16:27;2.50;97.00
10030;DHT22;5055;52.054;8.524;2024-03-07T01:18:55;2.50;97.00
10030;DHT22;5055;52.054;8.524;2024-03-07T01:21:25;2.40;97.00
10030;DHT22;5055;52.054;8.524;2024-03-07T01:23:53;2.40;97.00
10030;DHT22;5055;52.054;8.524;2024-03-07T01:26:21;2.30;97.00
10030;DHT22;5055;52.054;8.524;2024-03-07T01:28:50;2.30;97.00
10030;DHT22;5055;52.054;8.524;2024-03-07T01:31:18;2.20;97.00
10030;DHT22;5055;52.054;8.524;2024-03-07T01:33:46;2.10;97.00
10030;DHT22;5055;52.054;8.524;2024-03-07T01:36:14;2.10;97.00
10030;DHT22;5055;52.054;8.524;2024-03-07T01:38:45;2.00;97.00
10030;DHT22;5055;52.054;8.524;2024-03-07T01:41:13;2.00;97.00
10030;DHT22;5055;52.054;8.524;2024-03-07T01:43:47;1.90;97.00
10030;DHT22;5055;52.054;8.524;2024-03-07T01:46:21;1.90;97.00
10030;DHT22;5055;52.054;8.524;2024-03-07T01:48:59;1.80;97.00
10030;DHT22;5055;52.054;8.524;2024-03-07T01:51:30;1.70;97.00
10030;DHT22;5055;52.054;8.524;2024-03-07T01:54:00;1.70;97.00
10030;DHT22;5055;52.054;8.524;2024-03-07T01:56:29;1.60;97.00
10030;DHT22;5055;52.054;8.524;2024-03-07T01:59:00;1.60;97.00
10030;DHT22;5055;52.054;8.524;2024-03-07T02:01:29;1.50;97.00
10030;DHT22;5055;52.054;8.524;2024-03-07T02:03:57;1.50;97.00
10030;DHT22;5055;52.054;8.524;2024-03-07T02:06:26;1.50;97.00
10030;DHT22;5055;52.054;8.524;2024-03-07T02:08:54;1.40;97.00
10030;DHT22;5055;52.054;8.524;2024-03-07T02:11:25;1.30;97.00
10030;DHT22;5055;52.054;8.524;2024-03-07T02:13:53;1.30;97.00
10030;DHT22;5055;52.054;8.524;2024-03-07T02:16:21;1.20;97.00
10030;DHT22;5055;52.054;8.524;2024-03-07T02:18:50;1.20;97.00
10030;DHT22;5055;52.054;8.524;2024-03-07T02:21:19;1.10;97.00
10030;DHT22;5055;52.054;8.524;2024-03-07T02:23:49;1.10;97.00
10030;DHT22;5055;52.054;8.524;2024-03-07T02:26:18;1.00;97.00
10030;DHT22;5055;52.054;8.524;2024-03-07T02:28:46;1.00;97.00
10030;DHT22;5055;52.054;8.524;2024-03-07T02:31:14;0.90;97.00
10030;DHT22;5055;52.054;8.524;2024-03-07T02:33:42;0.90;97.00
10030;DHT22;5055;52.054;8.524;2024-03-07T02:36:10;0.90;97.00
10030;DHT22;5055;52.054;8.524;2024-03-07T02:38:40;0.80;97.00
10030;DHT22;5055;52.054;8.524;2024-03-07T02:41:09;0.80;97.00
10030;DHT22;5055;52.054;8.524;2024-03-07T02:43:37;0.80;97.00
10030;DHT22;5055;52.054;8.524;2024-03-07T02:46:05;0.80;97.00
10030;DHT22;5055;52.054;8.524;2024-03-07T02:48:33;0.80;97.00
10030;DHT22;5055;52.054;8.524;2024-03-07T02:51:02;0.80;97.00
10030;DHT22;5055;52.054;8.524;2024-03-07T02:53:32;0.70;97.00
10030;DHT22;5055;52.054;8.524;2024-03-07T02:56:02;0.70;97.00
10030;DHT22;5055;52.054;8.524;2024-03-07T02:58:30;0.70;97.00
10030;DHT22;5055;52.054;8.524;2024-03-07T03:00:59;0.60;97.00
10030;DHT22;5055;52.054;8.524;2024-03-07T03:03:27;0.60;97.00
10030;DHT22;5055;52.054;8.524;2024-03-07T03:05:58;0.50;97.00
10030;DHT22;5055;52.054;8.524;2024-03-07T03:08:26;0.50;97.00
10030;DHT22;5055;52.054;8.524;2024-03-07T03:10:55;0.40;97.00
10030;DHT22;5055;52.054;8.524;2024-03-07T03:13:26;0.30;97.00
10030;DHT22;5055;52.054;8.524;2024-03-07T03:15:55;0.30;97.00
10030;DHT22;5055;52.054;8.524;2024-03-07T03:18:23;0.20;97.00
10030;DHT22;5055;52.054;8.524;2024-03-07T03:26:02;0.20;97.00
10030;DHT22;5055;52.054;8.524;2024-03-07T03:28:32;0.20;97.00
10030;DHT22;5055;52.054;8.524;2024-03-07T03:31:00;0.10;97.00
10030;DHT22;5055;52.054;8.524;2024-03-07T03:33:28;0.10;97.00
10030;DHT22;5055;52.054;8.524;2024-03-07T03:35:57;0.10;97.00
10030;DHT22;5055;52.054;8.524;2024-03-07T03:38:26;0.00;97.00
10030;DHT22;5055;52.054;8.524;2024-03-07T03:40:54;0.00;97.00
10030;DHT22;5055;52.054;8.524;2024-03-07T03:43:22;0.00;97.00
10030;DHT22;5055;52.054;8.524;2024-03-07T03:45:52;-0.10;97.00
10030;DHT22;5055;52.054;8.524;2024-03-07T03:48:20;-0.10;97.00
10030;DHT22;5055;52.054;8.524;2024-03-07T03:50:48;-0.10;97.00
10030;DHT22;5055;52.054;8.524;2024-03-07T03:53:16;-0.20;97.00
10030;DHT22;5055;52.054;8.524;2024-03-07T03:55:44;-0.20;97.00
10030;DHT22;5055;52.054;8.524;2024-03-07T03:58:12;-0.20;97.00
10030;DHT22;5055;52.054;8.524;2024-03-07T04:00:40;-0.20;97.00
10030;DHT22;5055;52.054;8.524;2024-03-07T04:03:10;-0.30;97.00
10030;DHT22;5055;52.054;8.524;2024-03-07T04:05:38;-0.30;97.00
10030;DHT22;5055;52.054;8.524;2024-03-07T04:08:08;-0.30;97.00
10030;DHT22;5055;52.054;8.524;2024-03-07T04:10:36;-0.30;97.00
10030;DHT22;5055;52.054;8.524;2024-03-07T04:13:05;-0.40;97.00
10030;DHT22;5055;52.054;8.524;2024-03-07T04:15:33;-0.40;97.00
10030;DHT22;5055;52.054;8.524;2024-03-07T04:18:03;-0.40;97.00
10030;DHT22;5055;52.054;8.524;2024-03-07T04:20:33;-0.40;97.00
10030;DHT22;5055;52.054;8.524;2024-03-07T04:23:01;-0.50;97.00
10030;DHT22;5055;52.054;8.524;2024-03-07T04:25:30;-0.50;97.00
10030;DHT22;5055;52.054;8.524;2024-03-07T04:27:59;-0.50;97.00
10030;DHT22;5055;52.054;8.524;2024-03-07T04:30:27;-0.50;97.00
10030;DHT22;5055;52.054;8.524;2024-03-07T04:32:55;-0.60;97.00
10030;DHT22;5055;52.054;8.524;2024-03-07T04:35:25;-0.60;97.00
10030;DHT22;5055;52.054;8.524;2024-03-07T04:37:54;-0.60;97.00
10030;DHT22;5055;52.054;8.524;2024-03-07T04:40:22;-0.50;97.00
10030;DHT22;5055;52.054;8.524;2024-03-07T04:42:50;-0.50;97.00
10030;DHT22;5055;52.054;8.524;2024-03-07T04:45:19;-0.60;97.00
10030;DHT22;5055;52.054;8.524;2024-03-07T04:47:48;-0.60;97.00
10030;DHT22;5055;52.054;8.524;2024-03-07T04:50:17;-0.60;97.00
10030;DHT22;5055;52.054;8.524;2024-03-07T04:52:46;-0.50;97.00
10030;DHT22;5055;52.054;8.524;2024-03-07T04:55:18;-0.60;97.00
10030;DHT22;5055;52.054;8.524;2024-03-07T04:57:46;-0.60;97.00
10030;DHT22;5055;52.054;8.524;2024-03-07T05:00:14;-0.70;97.00
10030;DHT22;5055;52.054;8.524;2024-03-07T05:02:48;-0.70;97.00
10030;DHT22;5055;52.054;8.524;2024-03-07T05:05:16;-0.70;97.00
10030;DHT22;5055;52.054;8.524;2024-03-07T05:07:49;-0.70;97.00
10030;DHT22;5055;52.054;8.524;2024-03-07T05:10:20;-0.60;97.00
10030;DHT22;5055;52.054;8.524;2024-03-07T05:12:48;-0.60;97.00
10030;DHT22;5055;52.054;8.524;2024-03-07T05:15:16;-0.50;97.00
10030;DHT22;5055;52.054;8.524;2024-03-07T05:17:45;-0.40;97.00
10030;DHT22;5055;52.054;8.524;2024-03-07T05:20:15;-0.40;97.00
10030;DHT22;5055;52.054;8.524;2024-03-07T05:22:43;-0.30;97.00
10030;DHT22;5055;52.054;8.524;2024-03-07T05:25:17;-0.20;97.00
10030;DHT22;5055;52.054;8.524;2024-03-07T05:27:47;-0.20;97.00
10030;DHT22;5055;52.054;8.524;2024-03-07T05:30:17;-0.10;97.00
10030;DHT22;5055;52.054;8.524;2024-03-07T05:32:45;0.00;97.00
10030;DHT22;5055;52.054;8.524;2024-03-07T05:35:15;0.00;97.00
10030;DHT22;5055;52.054;8.524;2024-03-07T05:37:47;0.10;97.00
10030;DHT22;5055;52.054;8.524;2024-03-07T05:40:17;0.20;97.00
10030;DHT22;5055;52.054;8.524;2024-03-07T05:42:45;0.20;97.00
10030;DHT22;5055;52.054;8.524;2024-03-07T05:45:15;0.30;97.00
10030;DHT22;5055;52.054;8.524;2024-03-07T05:47:44;0.30;97.00
10030;DHT22;5055;52.054;8.524;2024-03-07T05:50:14;0.30;97.00
10030;DHT22;5055;52.054;8.524;2024-03-07T05:52:53;0.40;97.00
10030;DHT22;5055;52.054;8.524;2024-03-07T05:55:35;0.40;97.00
10030;DHT22;5055;52.054;8.524;2024-03-07T05:58:03;0.50;97.00
10030;DHT22;5055;52.054;8.524;2024-03-07T06:00:36;0.50;97.00
10030;DHT22;5055;52.054;8.524;2024-03-07T06:03:04;0.50;97.00
10030;DHT22;5055;52.054;8.524;2024-03-07T06:05:34;0.60;97.00
10030;DHT22;5055;52.054;8.524;2024-03-07T06:08:03;0.60;97.00
10030;DHT22;5055;52.054;8.524;2024-03-07T06:10:34;0.70;97.00
10030;DHT22;5055;52.054;8.524;2024-03-07T06:13:02;0.70;97.00
10030;DHT22;5055;52.054;8.524;2024-03-07T06:15:39;0.80;97.00
10030;DHT22;5055;52.054;8.524;2024-03-07T06:18:07;0.80;97.00
10030;DHT22;5055;52.054;8.524;2024-03-07T06:20:38;0.80;97.00
10030;DHT22;5055;52.054;8.524;2024-03-07T06:23:08;0.90;97.00
10030;DHT22;5055;52.054;8.524;2024-03-07T06:25:38;0.90;97.00
10030;DHT22;5055;52.054;8.524;2024-03-07T06:28:14;1.00;97.00
10030;DHT22;5055;52.054;8.524;2024-03-07T06:30:45;1.10;97.00
10030;DHT22;5055;52.054;8.524;2024-03-07T06:33:14;1.10;97.00
10030;DHT22;5055;52.054;8.524;2024-03-07T06:35:44;1.10;97.00
10030;DHT22;5055;52.054;8.524;2024-03-07T06:38:12;1.20;97.00
10030;DHT22;5055;52.054;8.524;2024-03-07T06:40:41;1.20;97.00
10030;DHT22;5055;52.054;8.524;2024-03-07T06:43:10;1.20;97.00
10030;DHT22;5055;52.054;8.524;2024-03-07T06:45:39;1.20;97.00
10030;DHT22;5055;52.054;8.524;2024-03-07T06:48:09;1.30;97.00
10030;DHT22;5055;52.054;8.524;2024-03-07T06:50:38;1.30;97.00
10030;DHT22;5055;52.054;8.524;2024-03-07T06:53:06;1.40;97.00
10030;DHT22;5055;52.054;8.524;2024-03-07T06:55:36;1.40;97.00
10030;DHT22;5055;52.054;8.524;2024-03-07T06:58:04;1.40;97.00
10030;DHT22;5055;52.054;8.524;2024-03-07T07:00:33;1.50;97.00
10030;DHT22;5055;52.054;8.524;2024-03-07T07:03:04;1.60;97.00
10030;DHT22;5055;52.054;8.524;2024-03-07T07:05:35;1.60;97.00
10030;DHT22;5055;52.054;8.524;2024-03-07T07:08:04;1.60;97.00
10030;DHT22;5055;52.054;8.524;2024-03-07T07:10:34;1.70;97.00
10030;DHT22;5055;52.054;8.524;2024-03-07T07:13:03;1.80;97.00
10030;DHT22;5055;52.054;8.524;2024-03-07T07:15:31;1.80;97.00
10030;DHT22;5055;52.054;8.524;2024-03-07T07:18:00;1.90;97.00
10030;DHT22;5055;52.054;8.524;2024-03-07T07:20:29;2.00;97.00
10030;DHT22;5055;52.054;8.524;2024-03-07T07:22:59;2.10;97.00
10030;DHT22;5055;52.054;8.524;2024-03-07T07:25:29;2.20;97.00
10030;DHT22;5055;52.054;8.524;2024-03-07T07:27:57;2.30;97.00
10030;DHT22;5055;52.054;8.524;2024-03-07T07:30:26;2.40;97.00
10030;DHT22;5055;52.054;8.524;2024-03-07T07:32:54;2.50;97.00
10030;DHT22;5055;52.054;8.524;2024-03-07T07:35:23;2.50;97.00
10030;DHT22;5055;52.054;8.524;2024-03-07T07:37:52;2.60;97.00
10030;DHT22;5055;52.054;8.524;2024-03-07T07:40:24;2.70;97.00
10030;DHT22;5055;52.054;8.524;2024-03-07T07:42:54;2.80;97.00
10030;DHT22;5055;52.054;8.524;2024-03-07T07:45:23;2.90;97.00
10030;DHT22;5055;52.054;8.524;2024-03-07T07:47:52;2.90;97.00
10030;DHT22;5055;52.054;8.524;2024-03-07T07:50:21;3.00;97.00
10030;DHT22;5055;52.054;8.524;2024-03-07T07:52:51;3.00;97.00
10030;DHT22;5055;52.054;8.524;2024-03-07T07:55:24;3.10;97.00
10030;DHT22;5055;52.054;8.524;2024-03-07T07:57:54;3.10;97.00
10030;DHT22;5055;52.054;8.524;2024-03-07T08:00:23;3.20;97.00
10030;DHT22;5055;52.054;8.524;2024-03-07T08:02:52;3.20;97.00
10030;DHT22;5055;52.054;8.524;2024-03-07T08:05:22;3.30;97.00
10030;DHT22;5055;52.054;8.524;2024-03-07T08:07:51;3.40;97.00
10030;DHT22;5055;52.054;8.524;2024-03-07T08:10:19;3.40;97.00
10030;DHT22;5055;52.054;8.524;2024-03-07T08:12:51;3.50;97.00
10030;DHT22;5055;52.054;8.524;2024-03-07T08:15:20;3.60;97.00
10030;DHT22;5055;52.054;8.524;2024-03-07T08:17:48;3.60;97.00
10030;DHT22;5055;52.054;8.524;2024-03-07T08:20:19;3.70;97.00
10030;DHT22;5055;52.054;8.524;2024-03-07T08:22:50;3.80;97.00
10030;DHT22;5055;52.054;8.524;2024-03-07T08:25:20;3.80;97.00
10030;DHT22;5055;52.054;8.524;2024-03-07T08:27:52;3.90;97.00
10030;DHT22;5055;52.054;8.524;2024-03-07T08:30:21;4.00;97.00
10030;DHT22;5055;52.054;8.524;2024-03-07T08:32:50;4.10;97.00
10030;DHT22;5055;52.054;8.524;2024-03-07T08:35:20;4.20;97.00
10030;DHT22;5055;52.054;8.524;2024-03-07T08:37:50;4.30;97.00
10030;DHT22;5055;52.054;8.524;2024-03-07T08:40:21;4.40;97.00
10030;DHT22;5055;52.054;8.524;2024-03-07T08:42:56;4.50;97.00
10030;DHT22;5055;52.054;8.524;2024-03-07T08:45:25;4.50;97.00
10030;DHT22;5055;52.054;8.524;2024-03-07T08:47:54;4.50;97.00
10030;DHT22;5055;52.054;8.524;2024-03-07T08:50:25;4.50;97.00
10030;DHT22;5055;52.054;8.524;2024-03-07T08:52:55;4.50;97.00
10030;DHT22;5055;52.054;8.524;2024-03-07T08:55:24;4.50;97.00
10030;DHT22;5055;52.054;8.524;2024-03-07T08:57:53;4.50;97.00
10030;DHT22;5055;52.054;8.524;2024-03-07T09:00:23;4.40;97.00
10030;DHT22;5055;52.054;8.524;2024-03-07T09:02:54;4.40;97.00
10030;DHT22;5055;52.054;8.524;2024-03-07T09:05:26;4.50;97.00
10030;DHT22;5055;52.054;8.524;2024-03-07T09:07:55;4.60;97.00
10030;DHT22;5055;52.054;8.524;2024-03-07T09:10:23;4.70;97.00
10030;DHT22;5055;52.054;8.524;2024-03-07T09:12:53;4.80;97.00
10030;DHT22;5055;52.054;8.524;2024-03-07T09:15:23;4.80;97.00
10030;DHT22;5055;52.054;8.524;2024-03-07T09:17:51;4.90;97.00
10030;DHT22;5055;52.054;8.524;2024-03-07T09:20:20;4.90;97.00
10030;DHT22;5055;52.054;8.524;2024-03-07T09:22:50;4.90;97.00
10030;DHT22;5055;52.054;8.524;2024-03-07T09:25:22;4.90;97.00
10030;DHT22;5055;52.054;8.524;2024-03-07T09:27:51;4.90;97.00
10030;DHT22;5055;52.054;8.524;2024-03-07T09:30:20;5.10;97.00
10030;DHT22;5055;52.054;8.524;2024-03-07T09:32:53;5.20;97.00
10030;DHT22;5055;52.054;8.524;2024-03-07T09:35:23;5.40;97.00
10030;DHT22;5055;52.054;8.524;2024-03-07T09:37:51;5.60;97.00
10030;DHT22;5055;52.054;8.524;2024-03-07T09:40:20;5.70;97.00
10030;DHT22;5055;52.054;8.524;2024-03-07T09:42:51;6.00;97.00
10030;DHT22;5055;52.054;8.524;2024-03-07T09:45:23;6.10;97.00
10030;DHT22;5055;52.054;8.524;2024-03-07T09:47:57;6.10;97.00
10030;DHT22;5055;52.054;8.524;2024-03-07T09:50:26;6.10;97.00
10030;DHT22;5055;52.054;8.524;2024-03-07T09:52:58;6.20;97.00
10030;DHT22;5055;52.054;8.524;2024-03-07T09:55:27;6.00;97.00
10030;DHT22;5055;52.054;8.524;2024-03-07T09:57:58;6.00;97.00
10030;DHT22;5055;52.054;8.524;2024-03-07T10:00:27;6.00;97.00
10030;DHT22;5055;52.054;8.524;2024-03-07T10:03:02;5.90;97.00
10030;DHT22;5055;52.054;8.524;2024-03-07T10:05:30;5.80;97.00
10030;DHT22;5055;52.054;8.524;2024-03-07T10:07:59;5.70;97.00
10030;DHT22;5055;52.054;8.524;2024-03-07T10:10:28;5.70;97.00
10030;DHT22;5055;52.054;8.524;2024-03-07T10:12:58;5.60;97.00
10030;DHT22;5055;52.054;8.524;2024-03-07T10:15:29;5.60;97.00
10030;DHT22;5055;52.054;8.524;2024-03-07T10:17:59;5.40;97.00
10030;DHT22;5055;52.054;8.524;2024-03-07T10:20:29;5.40;97.00
10030;DHT22;5055;52.054;8.524;2024-03-07T10:22:57;5.30;97.00
10030;DHT22;5055;52.054;8.524;2024-03-07T10:25:27;5.20;97.00
10030;DHT22;5055;52.054;8.524;2024-03-07T10:27:56;5.20;97.00
10030;DHT22;5055;52.054;8.524;2024-03-07T10:30:26;5.10;97.00
10030;DHT22;5055;52.054;8.524;2024-03-07T10:32:56;5.00;97.00
10030;DHT22;5055;52.054;8.524;2024-03-07T10:35:28;5.00;97.00
10030;DHT22;5055;52.054;8.524;2024-03-07T10:37:58;5.00;97.00
10030;DHT22;5055;52.054;8.524;2024-03-07T10:40:28;4.90;97.00
10030;DHT22;5055;52.054;8.524;2024-03-07T10:42:58;4.90;97.00
10030;DHT22;5055;52.054;8.524;2024-03-07T10:45:30;4.90;97.00
10030;DHT22;5055;52.054;8.524;2024-03-07T10:48:03;4.90;97.00
10030;DHT22;5055;52.054;8.524;2024-03-07T10:50:43;4.90;97.00
10030;DHT22;5055;52.054;8.524;2024-03-07T10:53:19;4.90;97.00
10030;DHT22;5055;52.054;8.524;2024-03-07T10:58:50;5.00;97.00
10030;DHT22;5055;52.054;8.524;2024-03-07T11:01:20;5.10;97.00
10030;DHT22;5055;52.054;8.524;2024-03-07T11:03:52;5.20;97.00
10030;DHT22;5055;52.054;8.524;2024-03-07T11:06:25;5.20;97.00
10030;DHT22;5055;52.054;8.524;2024-03-07T11:08:55;5.20;97.00
10030;DHT22;5055;52.054;8.524;2024-03-07T11:11:24;5.20;97.00
10030;DHT22;5055;52.054;8.524;2024-03-07T11:13:53;5.30;97.00
10030;DHT22;5055;52.054;8.524;2024-03-07T11:16:26;5.30;97.00
10030;DHT22;5055;52.054;8.524;2024-03-07T11:21:59;5.40;97.00
10030;DHT22;5055;52.054;8.524;2024-03-07T11:24:29;5.40;97.00
10030;DHT22;5055;52.054;8.524;2024-03-07T11:27:02;5.40;97.00
10030;DHT22;5055;52.054;8.524;2024-03-07T11:29:42;5.40;97.00
10030;DHT22;5055;52.054;8.524;2024-03-07T11:32:12;5.50;97.00
10030;DHT22;5055;52.054;8.524;2024-03-07T11:34:42;5.50;97.00
10030;DHT22;5055;52.054;8.524;2024-03-07T11:37:18;5.60;97.00
10030;DHT22;5055;52.054;8.524;2024-03-07T11:39:50;5.70;97.00
10030;DHT22;5055;52.054;8.524;2024-03-07T11:42:24;5.70;97.00
10030;DHT22;5055;52.054;8.524;2024-03-07T11:44:58;5.90;97.00
10030;DHT22;5055;52.054;8.524;2024-03-07T11:47:34;5.90;97.00
10030;DHT22;5055;52.054;8.524;2024-03-07T11:50:06;6.00;97.00
10030;DHT22;5055;52.054;8.524;2024-03-07T11:52:40;6.10;97.00
10030;DHT22;5055;52.054;8.524;2024-03-07T11:55:09;6.10;97.00
10030;DHT22;5055;52.054;8.524;2024-03-07T11:57:38;6.20;97.00
10030;DHT22;5055;52.054;8.524;2024-03-07T12:00:11;6.20;97.00
10030;DHT22;5055;52.054;8.524;2024-03-07T12:02:41;6.20;97.00
10030;DHT22;5055;52.054;8.524;2024-03-07T12:05:10;6.10;97.00
10030;DHT22;5055;52.054;8.524;2024-03-07T12:07:44;6.20;97.00
10030;DHT22;5055;52.054;8.524;2024-03-07T12:10:13;6.20;97.00
10030;DHT22;5055;52.054;8.524;2024-03-07T12:12:42;6.20;97.00
10030;DHT22;5055;52.054;8.524;2024-03-07T12:15:11;6.20;97.00
10030;DHT22;5055;52.054;8.524;2024-03-07T12:17:46;6.30;97.00
10030;DHT22;5055;52.054;8.524;2024-03-07T12:22:57;6.60;97.00
10030;DHT22;5055;52.054;8.524;2024-03-07T12:25:29;6.80;97.00
10030;DHT22;5055;52.054;8.524;2024-03-07T12:28:02;7.00;97.00
10030;DHT22;5055;52.054;8.524;2024-03-07T12:30:34;7.10;97.00
10030;DHT22;5055;52.054;8.524;2024-03-07T12:33:05;7.40;97.00
10030;DHT22;5055;52.054;8.524;2024-03-07T12:35:36;7.60;97.00
10030;DHT22;5055;52.054;8.524;2024-03-07T12:38:07;7.80;97.00
10030;DHT22;5055;52.054;8.524;2024-03-07T12:40:38;7.80;97.00
10030;DHT22;5055;52.054;8.524;2024-03-07T12:43:15;7.80;97.00
10030;DHT22;5055;52.054;8.524;2024-03-07T12:45:47;7.80;97.00
10030;DHT22;5055;52.054;8.524;2024-03-07T12:48:17;7.80;97.00
10030;DHT22;5055;52.054;8.524;2024-03-07T12:50:49;7.80;97.00
10030;DHT22;5055;52.054;8.524;2024-03-07T12:53:23;7.80;97.00
10030;DHT22;5055;52.054;8.524;2024-03-07T12:55:53;7.80;97.00
10030;DHT22;5055;52.054;8.524;2024-03-07T12:58:22;7.70;97.00
10030;DHT22;5055;52.054;8.524;2024-03-07T13:00:53;8.10;97.00
10030;DHT22;5055;52.054;8.524;2024-03-07T13:03:24;8.70;97.00
10030;DHT22;5055;52.054;8.524;2024-03-07T13:05:58;9.20;97.00
10030;DHT22;5055;52.054;8.524;2024-03-07T13:08:30;9.30;97.00
10030;DHT22;5055;52.054;8.524;2024-03-07T13:10:59;9.40;97.00
10030;DHT22;5055;52.054;8.524;2024-03-07T13:13:28;9.60;97.00
10030;DHT22;5055;52.054;8.524;2024-03-07T13:15:57;9.50;97.00
10030;DHT22;5055;52.054;8.524;2024-03-07T13:18:29;9.30;97.00
10030;DHT22;5055;52.054;8.524;2024-03-07T13:21:02;9.10;97.00
10030;DHT22;5055;52.054;8.524;2024-03-07T13:23:35;8.90;97.00
10030;DHT22;5055;52.054;8.524;2024-03-07T13:26:06;8.80;97.00
10030;DHT22;5055;52.054;8.524;2024-03-07T13:28:44;8.60;97.00
10030;DHT22;5055;52.054;8.524;2024-03-07T13:31:12;8.60;97.00
10030;DHT22;5055;52.054;8.524;2024-03-07T13:33:44;8.60;97.00
10030;DHT22;5055;52.054;8.524;2024-03-07T13:36:17;8.60;97.00
10030;DHT22;5055;52.054;8.524;2024-03-07T13:38:51;8.70;97.00
10030;DHT22;5055;52.054;8.524;2024-03-07T13:41:21;8.70;97.00
10030;DHT22;5055;52.054;8.524;2024-03-07T13:43:49;9.10;97.00
10030;DHT22;5055;52.054;8.524;2024-03-07T13:46:18;9.80;97.00
10030;DHT22;5055;52.054;8.524;2024-03-07T13:48:48;10.10;97.00
10030;DHT22;5055;52.054;8.524;2024-03-07T13:51:18;10.40;97.00
10030;DHT22;5055;52.054;8.524;2024-03-07T13:53:47;10.60;97.00
10030;DHT22;5055;52.054;8.524;2024-03-07T13:56:49;10.70;97.00
10030;DHT22;5055;52.054;8.524;2024-03-07T13:59:38;10.60;97.00
10030;DHT22;5055;52.054;8.524;2024-03-07T14:02:37;10.20;97.00
10030;DHT22;5055;52.054;8.524;2024-03-07T14:05:39;9.90;97.00
10030;DHT22;5055;52.054;8.524;2024-03-07T14:14:41;9.30;97.00
10030;DHT22;5055;52.054;8.524;2024-03-07T14:20:54;9.10;97.00
10030;DHT22;5055;52.054;8.524;2024-03-07T14:23:41;8.80;97.00
10030;DHT22;5055;52.054;8.524;2024-03-07T14:26:43;8.70;97.00
10030;DHT22;5055;52.054;8.524;2024-03-07T14:29:22;8.50;97.00
10030;DHT22;5055;52.054;8.524;2024-03-07T14:31:53;8.70;97.00
10030;DHT22;5055;52.054;8.524;2024-03-07T14:34:33;9.20;97.00
10030;DHT22;5055;52.054;8.524;2024-03-07T14:37:09;9.80;97.00
10030;DHT22;5055;52.054;8.524;2024-03-07T14:39:40;10.00;97.00
10030;DHT22;5055;52.054;8.524;2024-03-07T14:42:12;10.00;97.00
10030;DHT22;5055;52.054;8.524;2024-03-07T14:44:44;10.10;97.00
10030;DHT22;5055;52.054;8.524;2024-03-07T14:47:19;10.60;97.00
10030;DHT22;5055;52.054;8.524;2024-03-07T14:49:48;10.90;97.00
10030;DHT22;5055;52.054;8.524;2024-03-07T14:52:16;10.90;97.00
10030;DHT22;5055;52.054;8.524;2024-03-07T14:54:44;10.60;97.00
10030;DHT22;5055;52.054;8.524;2024-03-07T14:57:14;10.30;97.00
10030;DHT22;5055;52.054;8.524;2024-03-07T14:59:47;9.80;97.00
10030;DHT22;5055;52.054;8.524;2024-03-07T15:02:18;9.40;97.00
10030;DHT22;5055;52.054;8.524;2024-03-07T15:04:47;9.30;97.00
10030;DHT22;5055;52.054;8.524;2024-03-07T15:07:16;9.00;97.00
10030;DHT22;5055;52.054;8.524;2024-03-07T15:09:44;8.90;97.00
10030;DHT22;5055;52.054;8.524;2024-03-07T15:12:12;8.70;97.00
10030;DHT22;5055;52.054;8.524;2024-03-07T15:14:41;8.80;97.00
10030;DHT22;5055;52.054;8.524;2024-03-07T15:17:12;9.30;97.00
10030;DHT22;5055;52.054;8.524;2024-03-07T15:19:41;9.90;97.00
10030;DHT22;5055;52.054;8.524;2024-03-07T15:22:09;10.60;97.00
10030;DHT22;5055;52.054;8.524;2024-03-07T15:24:37;10.70;97.00
10030;DHT22;5055;52.054;8.524;2024-03-07T15:27:06;10.40;97.00
10030;DHT22;5055;52.054;8.524;2024-03-07T15:29:36;10.10;97.00
10030;DHT22;5055;52.054;8.524;2024-03-07T15:32:05;9.80;97.00
10030;DHT22;5055;52.054;8.524;2024-03-07T15:34:38;9.60;97.00
10030;DHT22;5055;52.054;8.524;2024-03-07T15:37:06;9.30;97.00
10030;DHT22;5055;52.054;8.524;2024-03-07T15:39:35;9.10;97.00
10030;DHT22;5055;52.054;8.524;2024-03-07T15:42:05;8.90;97.00
10030;DHT22;5055;52.054;8.524;2024-03-07T15:44:36;8.80;97.00
10030;DHT22;5055;52.054;8.524;2024-03-07T15:47:05;8.70;97.00
10030;DHT22;5055;52.054;8.524;2024-03-07T15:49:39;8.60;97.00
10030;DHT22;5055;52.054;8.524;2024-03-07T15:52:08;8.60;97.00
10030;DHT22;5055;52.054;8.524;2024-03-07T15:54:40;8.50;97.00
10030;DHT22;5055;52.054;8.524;2024-03-07T15:57:08;8.40;97.00
10030;DHT22;5055;52.054;8.524;2024-03-07T15:59:42;8.30;97.00
10030;DHT22;5055;52.054;8.524;2024-03-07T16:02:11;8.10;97.00
10030;DHT22;5055;52.054;8.524;2024-03-07T16:04:43;8.00;97.00
10030;DHT22;5055;52.054;8.524;2024-03-07T16:07:11;8.00;97.00
10030;DHT22;5055;52.054;8.524;2024-03-07T16:09:39;7.90;97.00
10030;DHT22;5055;52.054;8.524;2024-03-07T16:12:08;7.80;97.00
10030;DHT22;5055;52.054;8.524;2024-03-07T16:14:37;7.80;97.00
10030;DHT22;5055;52.054;8.524;2024-03-07T16:17:05;7.80;97.00
10030;DHT22;5055;52.054;8.524;2024-03-07T16:19:35;7.80;97.00
10030;DHT22;5055;52.054;8.524;2024-03-07T16:22:04;7.90;97.00
10030;DHT22;5055;52.054;8.524;2024-03-07T16:24:33;7.90;97.00
10030;DHT22;5055;52.054;8.524;2024-03-07T16:27:09;7.80;97.00
10030;DHT22;5055;52.054;8.524;2024-03-07T16:29:37;7.70;97.00
10030;DHT22;5055;52.054;8.524;2024-03-07T16:32:06;7.60;97.00
10030;DHT22;5055;52.054;8.524;2024-03-07T16:34:38;7.50;97.00
10030;DHT22;5055;52.054;8.524;2024-03-07T16:37:08;7.50;97.00
10030;DHT22;5055;52.054;8.524;2024-03-07T16:39:40;7.40;97.00
10030;DHT22;5055;52.054;8.524;2024-03-07T16:42:10;7.30;97.00
10030;DHT22;5055;52.054;8.524;2024-03-07T16:44:39;7.30;97.00